createdAt,value
2017-09-24T00:00:54.799Z,23.80
2017-09-24T00:03:22.338Z,48.97
2017-09-24T00:05:51.383Z,23.73
2017-09-24T00:08:18.940Z,25.33
2017-09-24T00:10:46.499Z,32.17
2017-09-24T00:13:14.035Z,29.00
2017-09-24T00:15:41.539Z,24.48
2017-09-24T00:18:10.592Z,23.70
2017-09-24T00:20:38.136Z,25.35
2017-09-24T00:23:06.009Z,22.57
2017-09-24T00:25:33.567Z,24.30
2017-09-24T00:28:01.840Z,26.83
2017-09-24T00:30:29.379Z,24.80
2017-09-24T00:32:56.926Z,31.15
2017-09-24T00:35:24.799Z,25.90
2017-09-24T00:37:52.339Z,25.60
2017-09-24T00:40:19.852Z,21.33
2017-09-24T00:42:48.059Z,25.65
2017-09-24T00:45:15.576Z,23.90
2017-09-24T00:47:43.094Z,21.33
2017-09-24T00:50:10.927Z,22.45
2017-09-24T00:52:38.447Z,25.17
2017-09-24T00:55:06.036Z,23.90
2017-09-24T00:57:33.591Z,26.20
2017-09-24T01:00:03.081Z,20.42
2017-09-24T01:02:30.583Z,25.60
2017-09-24T01:04:58.132Z,22.00
2017-09-24T01:07:26.478Z,26.32
2017-09-24T01:09:54.752Z,36.50
2017-09-24T01:12:22.275Z,24.03
2017-09-24T01:14:50.559Z,24.10
2017-09-24T01:17:18.078Z,24.77
2017-09-24T01:19:45.578Z,25.85
2017-09-24T01:22:13.155Z,26.00
2017-09-24T01:24:40.671Z,35.00
2017-09-24T01:27:08.183Z,26.45
2017-09-24T01:29:35.749Z,28.25
2017-09-24T01:32:04.984Z,24.80
2017-09-24T01:34:32.531Z,24.80
2017-09-24T01:37:03.316Z,24.48
2017-09-24T01:39:30.805Z,29.50
2017-09-24T01:41:58.352Z,25.55
2017-09-24T01:44:25.904Z,35.83
2017-09-24T01:46:54.947Z,29.37
2017-09-24T01:49:22.451Z,28.57
2017-09-24T01:51:51.698Z,28.20
2017-09-24T01:54:19.250Z,27.53
2017-09-24T01:56:46.782Z,32.17
2017-09-24T01:59:14.654Z,24.70
2017-09-24T02:01:42.162Z,26.30
2017-09-24T02:04:09.705Z,24.63
2017-09-24T02:06:41.479Z,31.27
2017-09-24T02:09:09.109Z,25.27
2017-09-24T02:11:36.627Z,26.33
2017-09-24T02:14:04.178Z,27.03
2017-09-24T02:16:32.038Z,27.70
2017-09-24T02:18:59.857Z,26.37
2017-09-24T02:21:27.559Z,25.50
2017-09-24T02:23:55.376Z,25.37
2017-09-24T02:26:23.122Z,28.25
2017-09-24T02:28:50.625Z,25.40
2017-09-24T02:31:18.163Z,31.50
2017-09-24T02:33:46.359Z,22.10
2017-09-24T02:36:24.960Z,33.63
2017-09-24T02:38:52.779Z,24.70
2017-09-24T02:41:20.290Z,29.93
2017-09-24T02:43:47.870Z,25.90
2017-09-24T02:46:15.383Z,29.47
2017-09-24T02:48:42.904Z,23.07
2017-09-24T02:51:10.636Z,25.00
2017-09-24T02:53:41.148Z,24.75
2017-09-24T02:56:08.917Z,30.57
2017-09-24T02:58:36.483Z,24.92
2017-09-24T03:01:04.387Z,25.02
2017-09-24T03:03:31.938Z,23.67
2017-09-24T03:05:59.439Z,28.90
2017-09-24T03:08:30.795Z,23.83
2017-09-24T03:10:58.313Z,25.73
2017-09-24T03:13:25.917Z,24.83
2017-09-24T03:15:53.490Z,31.37
2017-09-24T03:18:21.008Z,23.77
2017-09-24T03:20:49.324Z,26.83
2017-09-24T03:23:20.178Z,23.65
2017-09-24T03:25:47.735Z,32.00
2017-09-24T03:28:15.254Z,26.27
2017-09-24T03:30:43.379Z,29.77
2017-09-24T03:33:10.883Z,30.20
2017-09-24T03:35:38.678Z,29.83
2017-09-24T03:38:09.198Z,32.08
2017-09-24T03:40:37.481Z,29.60
2017-09-24T03:43:05.043Z,29.27
2017-09-24T03:45:33.071Z,27.40
2017-09-24T03:48:00.631Z,26.17
2017-09-24T03:50:29.847Z,27.55
2017-09-24T03:53:01.318Z,32.78
2017-09-24T03:55:28.995Z,25.62
2017-09-24T03:57:56.535Z,29.33
2017-09-24T04:00:24.385Z,33.42
2017-09-24T04:02:52.659Z,26.23
2017-09-24T04:05:21.000Z,28.03
2017-09-24T04:07:50.023Z,28.48
2017-09-24T04:10:21.501Z,27.47
2017-09-24T04:12:50.162Z,28.12
2017-09-24T04:15:17.759Z,27.60
2017-09-24T04:17:45.307Z,28.07
2017-09-24T04:20:14.544Z,29.87
2017-09-24T04:22:42.068Z,31.00
2017-09-24T04:25:09.907Z,28.73
2017-09-24T04:27:37.425Z,32.03
2017-09-24T04:30:05.735Z,30.03
2017-09-24T04:32:33.303Z,28.05
2017-09-24T04:35:01.572Z,28.93
2017-09-24T04:37:29.355Z,24.87
2017-09-24T04:40:03.584Z,30.73
2017-09-24T04:42:31.250Z,27.52
2017-09-24T04:44:58.788Z,26.60
2017-09-24T04:47:26.335Z,29.10
2017-09-24T04:49:54.642Z,27.73
2017-09-24T04:52:22.814Z,31.67
2017-09-24T04:54:50.314Z,35.20
2017-09-24T04:57:17.883Z,28.07
2017-09-24T04:59:45.424Z,32.70
2017-09-24T05:02:12.955Z,33.23
2017-09-24T05:04:40.676Z,31.25
2017-09-24T05:07:08.960Z,37.63
2017-09-24T05:09:37.375Z,31.80
2017-09-24T05:12:05.133Z,33.80
2017-09-24T05:14:32.735Z,31.80
2017-09-24T05:17:00.251Z,28.83
2017-09-24T05:19:27.759Z,30.50
2017-09-24T05:21:56.033Z,31.95
2017-09-24T05:24:23.530Z,32.30
2017-09-24T05:26:51.051Z,26.07
2017-09-24T05:29:18.599Z,32.20
2017-09-24T05:31:46.148Z,34.17
2017-09-24T05:34:13.732Z,36.33
2017-09-24T05:36:41.640Z,32.90
2017-09-24T05:39:09.232Z,30.77
2017-09-24T05:41:36.775Z,32.17
2017-09-24T05:44:04.296Z,26.87
2017-09-24T05:46:32.568Z,30.10
2017-09-24T05:49:00.131Z,32.30
2017-09-24T05:51:29.349Z,34.33
2017-09-24T05:53:56.878Z,32.87
2017-09-24T05:56:25.300Z,30.87
2017-09-24T05:58:53.043Z,27.83
2017-09-24T06:01:20.709Z,33.60
2017-09-24T06:03:48.415Z,28.07
2017-09-24T06:06:15.977Z,27.30
2017-09-24T06:08:43.572Z,25.30
2017-09-24T06:11:11.135Z,27.90
2017-09-24T06:13:38.691Z,30.43
2017-09-24T06:16:06.752Z,32.90
2017-09-24T06:18:35.071Z,29.33
2017-09-24T06:21:02.823Z,33.03
2017-09-24T06:23:30.515Z,24.40
2017-09-24T06:25:58.040Z,32.23
2017-09-24T06:28:25.879Z,25.90
2017-09-24T06:30:54.166Z,33.77
2017-09-24T06:33:21.739Z,31.70
2017-09-24T06:35:49.270Z,30.17
2017-09-24T06:38:17.589Z,25.83
2017-09-24T06:40:48.786Z,26.35
2017-09-24T06:43:17.078Z,26.07
2017-09-24T06:45:46.330Z,28.08
2017-09-24T06:48:13.873Z,28.37
2017-09-24T06:50:41.824Z,30.47
2017-09-24T06:53:10.177Z,30.25
2017-09-24T06:55:41.546Z,27.10
2017-09-24T06:58:09.100Z,24.73
2017-09-24T07:00:36.620Z,26.05
2017-09-24T07:03:04.167Z,30.75
2017-09-24T07:05:32.096Z,28.40
2017-09-24T07:07:59.674Z,28.20
2017-09-24T07:10:27.232Z,26.37
2017-09-24T07:12:55.120Z,25.67
2017-09-24T07:15:22.667Z,30.80
2017-09-24T07:17:50.188Z,29.40
2017-09-24T07:20:19.334Z,29.50
2017-09-24T07:22:47.008Z,25.60
2017-09-24T07:25:14.571Z,31.50
2017-09-24T07:27:42.083Z,27.20
2017-09-24T07:30:09.700Z,32.07
2017-09-24T07:32:38.785Z,30.45
2017-09-24T07:35:06.352Z,29.60
2017-09-24T07:37:33.872Z,30.90
2017-09-24T07:40:02.363Z,29.30
2017-09-24T07:42:29.885Z,26.85
2017-09-24T07:44:58.163Z,28.53
2017-09-24T07:47:25.696Z,26.60
2017-09-24T07:49:53.249Z,27.77
2017-09-24T07:52:22.711Z,25.67
2017-09-24T07:54:52.001Z,23.60
2017-09-24T07:57:19.507Z,24.57
2017-09-24T07:59:47.072Z,24.00
2017-09-24T08:02:14.655Z,35.77
2017-09-24T08:04:42.283Z,21.60
2017-09-24T08:07:09.835Z,23.57
2017-09-24T08:09:37.416Z,21.83
2017-09-24T08:12:05.789Z,22.02
2017-09-24T08:14:33.373Z,18.57
2017-09-24T08:17:01.657Z,19.30
2017-09-24T08:19:30.857Z,19.48
2017-09-24T08:21:58.433Z,18.20
2017-09-24T08:24:26.348Z,18.50
2017-09-24T08:26:58.420Z,18.10
2017-09-24T08:29:25.925Z,14.20
2017-09-24T08:31:53.485Z,12.37
2017-09-24T08:34:20.990Z,11.75
2017-09-24T08:36:48.496Z,11.07
2017-09-24T08:39:16.408Z,16.33
2017-09-24T08:41:44.722Z,11.50
2017-09-24T08:44:12.532Z,12.10
2017-09-24T08:46:40.079Z,12.73
2017-09-24T08:49:07.619Z,10.20
2017-09-24T08:51:36.111Z,11.93
2017-09-24T08:54:03.658Z,11.30
2017-09-24T08:56:31.176Z,12.57
2017-09-24T08:59:01.553Z,13.20
2017-09-24T09:01:29.263Z,9.70
2017-09-24T09:03:56.842Z,12.70
2017-09-24T09:06:25.122Z,9.33
2017-09-24T09:08:53.228Z,8.70
2017-09-24T09:11:20.737Z,10.53
2017-09-24T09:13:51.830Z,16.30
2017-09-24T09:16:19.326Z,12.13
2017-09-24T09:18:46.844Z,12.05
2017-09-24T09:21:14.505Z,11.77
2017-09-24T09:23:42.213Z,14.63
2017-09-24T09:26:09.755Z,9.80
2017-09-24T09:28:41.174Z,10.67
2017-09-24T09:31:08.680Z,8.93
2017-09-24T09:33:36.179Z,13.43
2017-09-24T09:36:03.723Z,11.70
2017-09-24T09:38:31.721Z,10.73
2017-09-24T09:40:59.255Z,16.40
2017-09-24T09:43:42.209Z,11.27
2017-09-24T09:46:21.348Z,15.00
2017-09-24T09:48:48.883Z,10.80
2017-09-24T09:51:16.705Z,11.50
2017-09-24T09:53:45.957Z,13.82
2017-09-24T09:56:13.518Z,21.12
2017-09-24T09:58:41.049Z,13.87
2017-09-24T10:01:08.811Z,8.77
2017-09-24T10:03:36.328Z,10.20
2017-09-24T10:06:04.403Z,7.95
2017-09-24T10:08:43.644Z,9.67
2017-09-24T10:11:11.199Z,7.93
2017-09-24T10:13:41.127Z,9.52
2017-09-24T10:16:08.629Z,8.17
2017-09-24T10:18:36.202Z,8.33
2017-09-24T10:21:04.259Z,9.27
2017-09-24T10:23:31.768Z,8.98
2017-09-24T10:26:01.044Z,6.03
2017-09-24T10:31:46.645Z,7.43
2017-09-24T10:34:14.191Z,6.00
2017-09-24T10:36:41.698Z,6.17
2017-09-24T10:39:09.209Z,8.90
2017-09-24T10:41:37.665Z,5.10
2017-09-24T10:44:05.188Z,4.63
2017-09-24T10:46:32.902Z,5.53
2017-09-24T10:49:00.519Z,5.90
2017-09-24T10:51:28.271Z,5.93
2017-09-24T10:53:56.702Z,5.66
2017-09-24T10:56:24.206Z,5.30
2017-09-24T10:58:51.756Z,5.10
2017-09-24T11:01:19.356Z,4.40
2017-09-24T11:03:46.867Z,4.65
2017-09-24T11:06:14.632Z,4.00
2017-09-24T11:08:42.139Z,5.55
2017-09-24T11:11:10.459Z,3.45
2017-09-24T11:13:38.023Z,3.97
2017-09-24T11:16:05.523Z,4.50
2017-09-24T11:18:33.443Z,8.13
2017-09-24T11:21:01.198Z,6.50
2017-09-24T11:23:30.150Z,7.63
2017-09-24T11:25:57.653Z,3.35
2017-09-24T11:28:25.505Z,5.32
2017-09-24T11:31:01.331Z,4.20
2017-09-24T11:33:30.563Z,4.10
2017-09-24T11:35:58.075Z,3.60
2017-09-24T11:38:25.586Z,4.33
2017-09-24T11:40:53.136Z,2.97
2017-09-24T11:43:20.636Z,3.87
2017-09-24T11:45:51.719Z,3.47
2017-09-24T11:48:19.830Z,3.70
2017-09-24T11:50:48.278Z,4.80
2017-09-24T11:53:16.580Z,3.62
2017-09-24T11:55:44.620Z,4.64
2017-09-24T11:58:12.132Z,5.43
2017-09-24T12:00:42.922Z,4.70
2017-09-24T12:03:10.983Z,4.12
2017-09-24T12:05:39.446Z,3.50
2017-09-24T12:08:07.752Z,6.15
2017-09-24T12:10:35.291Z,4.40
2017-09-24T12:13:03.035Z,3.97
2017-09-24T12:15:31.347Z,3.20
2017-09-24T12:17:58.872Z,3.07
2017-09-24T12:20:27.213Z,2.60
2017-09-24T12:22:55.199Z,3.20
2017-09-24T12:25:24.211Z,2.92
2017-09-24T12:27:51.754Z,3.30
2017-09-24T12:30:19.268Z,2.23
2017-09-24T12:32:46.833Z,2.30
2017-09-24T12:35:14.355Z,3.62
2017-09-24T12:37:43.586Z,7.13
2017-09-24T12:40:11.119Z,2.50
2017-09-24T12:42:38.707Z,2.10
2017-09-24T12:45:07.135Z,1.90
2017-09-24T12:47:39.045Z,2.08
2017-09-24T12:50:06.590Z,3.10
2017-09-24T12:52:34.886Z,1.83
2017-09-24T12:55:03.297Z,2.47
2017-09-24T12:57:30.799Z,2.75
2017-09-24T12:59:58.319Z,1.90
2017-09-24T13:02:29.312Z,2.97
2017-09-24T13:04:57.703Z,2.45
2017-09-24T13:07:26.235Z,2.00
2017-09-24T13:09:53.784Z,3.23
2017-09-24T13:12:22.199Z,4.32
2017-09-24T13:14:49.744Z,4.33
2017-09-24T13:17:18.034Z,4.47
2017-09-24T13:19:46.500Z,5.37
2017-09-24T13:22:14.784Z,5.47
2017-09-24T13:24:42.326Z,3.27
2017-09-24T13:27:11.691Z,3.08
2017-09-24T13:29:39.360Z,4.10
2017-09-24T13:32:07.703Z,4.65
2017-09-24T13:34:36.084Z,3.25
2017-09-24T13:37:03.671Z,4.45
2017-09-24T13:39:31.176Z,4.03
2017-09-24T13:41:58.707Z,10.93
2017-09-24T13:44:26.262Z,2.80
2017-09-24T13:46:53.763Z,3.10
2017-09-24T13:49:21.706Z,3.42
2017-09-24T13:51:50.436Z,3.37
2017-09-24T13:54:17.939Z,4.15
2017-09-24T13:56:45.487Z,2.23
2017-09-24T13:59:13.528Z,2.97
2017-09-24T14:01:41.055Z,4.20
2017-09-24T14:04:09.863Z,2.53
2017-09-24T14:06:37.553Z,2.73
2017-09-24T14:09:05.099Z,4.80
2017-09-24T14:11:32.668Z,4.12
2017-09-24T14:14:00.603Z,5.50
2017-09-24T14:16:28.952Z,3.10
2017-09-24T14:18:59.567Z,3.67
2017-09-24T14:21:27.075Z,2.93
2017-09-24T14:23:54.762Z,2.67
2017-09-24T14:26:23.233Z,1.97
2017-09-24T14:28:50.750Z,3.30
2017-09-24T14:31:19.013Z,2.80
2017-09-24T14:33:52.491Z,2.00
2017-09-24T14:36:20.018Z,3.47
2017-09-24T14:38:48.991Z,5.05
2017-09-24T14:41:16.519Z,1.97
2017-09-24T14:43:44.067Z,2.50
2017-09-24T14:46:12.500Z,2.30
2017-09-24T14:48:43.476Z,1.90
2017-09-24T14:51:11.323Z,3.13
2017-09-24T14:53:38.860Z,1.77
2017-09-24T14:56:06.379Z,2.90
2017-09-24T14:58:33.999Z,3.13
2017-09-24T15:01:02.893Z,1.90
2017-09-24T15:03:30.404Z,2.40
2017-09-24T15:05:58.717Z,2.43
2017-09-24T15:08:27.943Z,5.30
2017-09-24T15:10:55.463Z,6.37
2017-09-24T15:13:22.997Z,3.90
2017-09-24T15:15:52.253Z,4.68
2017-09-24T15:18:20.024Z,2.10
2017-09-24T15:20:47.569Z,3.63
2017-09-24T15:23:15.211Z,4.10
2017-09-24T15:25:42.752Z,3.53
2017-09-24T15:28:11.988Z,6.47
2017-09-24T15:30:39.495Z,2.30
2017-09-24T15:33:07.775Z,3.30
2017-09-24T15:35:39.773Z,4.93
2017-09-24T15:38:07.319Z,4.43
2017-09-24T15:40:35.779Z,4.00
2017-09-24T15:43:04.083Z,3.30
2017-09-24T15:45:31.599Z,10.90
2017-09-24T15:47:59.156Z,2.40
2017-09-24T15:50:27.022Z,3.30
2017-09-24T15:52:55.483Z,3.33
2017-09-24T15:55:23.434Z,2.20
2017-09-24T15:57:50.943Z,4.12
2017-09-24T16:00:18.500Z,4.60
2017-09-24T16:02:46.814Z,6.60
2017-09-24T16:05:14.577Z,3.22
2017-09-24T16:07:42.088Z,6.47
2017-09-24T16:10:09.643Z,3.60
2017-09-24T16:12:37.208Z,2.07
2017-09-24T16:15:04.749Z,2.60
2017-09-24T16:17:32.250Z,3.25
2017-09-24T16:20:04.257Z,9.48
2017-09-24T16:22:31.805Z,2.43
2017-09-24T16:24:59.354Z,2.17
2017-09-24T16:27:26.871Z,1.70
2017-09-24T16:29:54.392Z,3.10
2017-09-24T16:32:22.090Z,1.73
2017-09-24T16:34:49.595Z,3.57
2017-09-24T16:37:18.261Z,4.35
2017-09-24T16:39:45.756Z,5.07
2017-09-24T16:42:13.247Z,6.95
2017-09-24T16:44:42.506Z,4.78
2017-09-24T16:47:10.024Z,6.90
2017-09-24T16:49:38.302Z,6.20
2017-09-24T16:52:05.880Z,5.57
2017-09-24T16:54:33.388Z,3.00
2017-09-24T16:57:01.829Z,4.60
2017-09-24T16:59:29.372Z,3.17
2017-09-24T17:01:56.875Z,3.93
2017-09-24T17:04:24.425Z,3.53
2017-09-24T17:06:51.994Z,4.47
2017-09-24T17:09:19.872Z,5.73
2017-09-24T17:11:47.880Z,3.27
2017-09-24T17:14:15.648Z,4.63
2017-09-24T17:16:43.199Z,5.05
2017-09-24T17:19:11.522Z,3.50
2017-09-24T17:21:39.060Z,3.10
2017-09-24T17:24:06.579Z,5.00
2017-09-24T17:26:34.106Z,3.95
2017-09-24T17:29:01.947Z,7.63
2017-09-24T17:31:29.540Z,3.28
2017-09-24T17:33:57.415Z,3.97
2017-09-24T17:36:28.021Z,7.03
2017-09-24T17:38:55.563Z,6.43
2017-09-24T17:41:24.475Z,5.78
2017-09-24T17:43:51.980Z,7.90
2017-09-24T17:46:20.290Z,5.83
2017-09-24T17:48:48.577Z,7.10
2017-09-24T17:51:24.712Z,5.83
2017-09-24T17:53:52.221Z,7.97
2017-09-24T17:56:19.962Z,7.37
2017-09-24T17:58:47.519Z,6.62
2017-09-24T18:01:15.145Z,7.50
2017-09-24T18:03:42.642Z,7.00
2017-09-24T18:06:10.387Z,6.50
2017-09-24T18:08:38.764Z,5.12
2017-09-24T18:11:06.349Z,5.18
2017-09-24T18:13:34.255Z,6.45
2017-09-24T18:16:03.495Z,6.98
2017-09-24T18:18:31.925Z,9.30
2017-09-24T18:20:59.435Z,7.80
2017-09-24T18:23:27.946Z,11.67
2017-09-24T18:25:55.537Z,7.40
2017-09-24T18:28:23.093Z,10.60
2017-09-24T18:30:52.285Z,8.55
2017-09-24T18:33:19.819Z,6.45
2017-09-24T18:35:47.368Z,7.97
2017-09-24T18:38:14.990Z,8.10
2017-09-24T18:40:42.539Z,9.77
2017-09-24T18:43:11.783Z,16.63
2017-09-24T18:45:39.291Z,8.67
2017-09-24T18:48:07.607Z,8.93
2017-09-24T18:50:35.131Z,8.02
2017-09-24T18:53:03.741Z,10.52
2017-09-24T18:55:35.525Z,7.00
2017-09-24T18:58:03.178Z,10.17
2017-09-24T19:00:31.487Z,12.36
2017-09-24T19:02:58.988Z,10.10
2017-09-24T19:05:26.504Z,14.32
2017-09-24T19:08:01.383Z,12.65
2017-09-24T19:10:28.890Z,12.00
2017-09-24T19:12:56.924Z,8.05
2017-09-24T19:15:24.768Z,11.40
2017-09-24T19:17:52.331Z,10.27
2017-09-24T19:20:21.645Z,12.32
2017-09-24T19:22:51.966Z,11.65
2017-09-24T19:25:19.642Z,10.17
2017-09-24T19:27:47.176Z,8.50
2017-09-24T19:30:15.203Z,13.32
2017-09-24T19:32:42.939Z,12.83
2017-09-24T19:35:10.489Z,14.27
2017-09-24T19:37:38.504Z,13.05
2017-09-24T19:40:06.048Z,9.43
2017-09-24T19:42:33.586Z,15.90
2017-09-24T19:45:01.154Z,8.50
2017-09-24T19:47:28.728Z,8.10
2017-09-24T19:49:56.260Z,7.37
2017-09-24T19:52:24.490Z,6.07
2017-09-24T19:54:52.285Z,7.20
2017-09-24T19:57:19.816Z,11.15
2017-09-24T19:59:49.071Z,6.17
2017-09-24T20:02:16.610Z,9.33
2017-09-24T20:04:44.169Z,7.50
2017-09-24T20:07:11.728Z,8.13
2017-09-24T20:09:39.262Z,12.77
2017-09-24T20:12:06.775Z,14.46
2017-09-24T20:14:34.336Z,6.83
2017-09-24T20:17:03.532Z,8.10
2017-09-24T20:19:31.063Z,20.87
2017-09-24T20:21:58.932Z,11.33
2017-09-24T20:24:27.357Z,10.70
2017-09-24T20:26:54.884Z,8.50
2017-09-24T20:29:22.397Z,11.87
2017-09-24T20:31:49.932Z,11.07
2017-09-24T20:34:17.451Z,9.20
2017-09-24T20:36:45.614Z,10.98
2017-09-24T20:39:17.588Z,9.70
2017-09-24T20:41:45.099Z,13.20
2017-09-24T20:44:13.524Z,10.80
2017-09-24T20:46:41.140Z,15.97
2017-09-24T20:49:08.663Z,11.82
2017-09-24T20:51:36.259Z,11.10
2017-09-24T20:54:03.795Z,13.33
2017-09-24T20:56:34.684Z,11.40
2017-09-24T20:59:02.199Z,10.07
2017-09-24T21:01:30.771Z,13.35
2017-09-24T21:03:58.323Z,8.90
2017-09-24T21:06:26.299Z,10.80
2017-09-24T21:08:54.112Z,11.68
2017-09-24T21:11:22.135Z,12.43
2017-09-24T21:13:49.910Z,12.37
2017-09-24T21:16:17.451Z,9.80
2017-09-24T21:18:44.955Z,7.63
2017-09-24T21:21:13.258Z,11.50
2017-09-24T21:23:40.960Z,10.83
2017-09-24T21:26:09.654Z,12.20
2017-09-24T21:28:37.200Z,12.87
2017-09-24T21:31:04.720Z,15.63
2017-09-24T21:33:32.686Z,17.73
2017-09-24T21:36:00.779Z,14.23
2017-09-24T21:38:28.352Z,16.62
2017-09-24T21:40:55.974Z,19.10
2017-09-24T21:43:23.507Z,12.30
2017-09-24T21:45:52.735Z,16.07
2017-09-24T21:48:20.282Z,16.35
2017-09-24T21:50:47.808Z,16.50
2017-09-24T21:53:16.143Z,13.27
2017-09-24T21:55:43.640Z,11.88
2017-09-24T21:58:12.076Z,14.27
2017-09-24T22:00:39.628Z,16.95
2017-09-24T22:03:07.167Z,13.50
2017-09-24T22:05:34.865Z,16.02
2017-09-24T22:08:02.371Z,17.67
2017-09-24T22:10:36.216Z,17.00
2017-09-24T22:13:03.975Z,16.33
2017-09-24T22:15:31.947Z,19.78
2017-09-24T22:17:59.919Z,18.48
2017-09-24T22:20:27.447Z,19.63
2017-09-24T22:22:54.963Z,15.77
2017-09-24T22:25:22.507Z,16.37
2017-09-24T22:27:53.647Z,16.27
2017-09-24T22:30:22.029Z,23.62
2017-09-24T22:32:49.547Z,17.45
2017-09-24T22:35:17.850Z,17.83
2017-09-24T22:37:46.876Z,17.67
2017-09-24T22:40:14.470Z,21.27
2017-09-24T22:42:41.996Z,15.30
2017-09-24T22:45:11.949Z,17.65
2017-09-24T22:47:39.478Z,13.57
2017-09-24T22:50:07.451Z,8.82
2017-09-24T22:52:36.188Z,16.55
2017-09-24T22:55:03.724Z,15.50
2017-09-24T22:57:31.996Z,17.90
2017-09-24T22:59:59.845Z,18.70
2017-09-24T23:02:27.557Z,16.30
2017-09-24T23:04:55.655Z,11.83
2017-09-24T23:07:23.216Z,15.93
2017-09-24T23:09:51.260Z,21.20
2017-09-24T23:12:19.247Z,17.10
2017-09-24T23:14:47.279Z,14.80
2017-09-24T23:17:14.791Z,16.60
2017-09-24T23:19:42.288Z,17.97
2017-09-24T23:22:10.603Z,18.50
2017-09-24T23:24:38.278Z,18.60
2017-09-24T23:27:05.790Z,14.90
2017-09-24T23:29:33.579Z,15.50
2017-09-24T23:32:01.284Z,17.40
2017-09-24T23:34:29.586Z,16.40
2017-09-24T23:36:57.080Z,14.70
2017-09-24T23:39:24.632Z,13.93
2017-09-24T23:41:52.677Z,13.90
2017-09-24T23:44:22.599Z,12.07
2017-09-24T23:46:50.111Z,14.90
2017-09-24T23:49:17.655Z,16.67
2017-09-24T23:51:45.211Z,18.00
2017-09-24T23:54:12.770Z,14.80
2017-09-24T23:56:41.050Z,17.00
2017-09-24T23:59:13.204Z,16.00
